Terminal Aerodrome Forecast
Issued by NWS

Home | Current Version | Previous Version | Text Only | Print | Product List | Glossary On
Versions: 1 2 3 4 5 6 7 8 9 10 11 12 13 14 15 16 17 18 19 20 21 22 23 24 25 26 27 28 29 30 31 32 33 34 35 36 37 38 39
000
FTUS43 KDLH 300520
TAFHYR
TAF
KHYR 300520Z 3006/0106 00000KT 1/2SM FG OVC015
      TEMPO 3006/3009 4SM BR OVC015
     FM300900 VRB02KT 2SM BR OVC007
     FM301300 03007KT P6SM SCT007 BKN020
     FM301800 02006KT P6SM SCT020=

USA.gov is the U.S. government's official web portal to all federal, state and local government web resources and services.